Time;durP1;ratioP1;P1;durP2;ratioP2;P2;SDS_P1;SDS_P2;PMS_P1;PMS_P2;Temp;Humidity;BMP_temperature;BMP_pressure;BME280_temperature;BME280_humidity;BME280_pressure;Samples;Min_cycle;Max_cycle;Signal;HPM_P1;HPM_P2
2024/02/18 00:01:37;;;;;;;0.75;0.75;;;9.30;99.90;;;;;;5082800;28;20040;-76
2024/02/18 00:04:03;;;;;;;2.28;2.10;;;9.20;99.90;;;;;;5084031;28;20032;-77
2024/02/18 00:06:29;;;;;;;7.78;2.53;;;9.20;99.90;;;;;;5084943;28;20491;-77
2024/02/18 00:08:55;;;;;;;1.50;1.40;;;9.10;99.90;;;;;;5082922;28;20031;-76
2024/02/18 00:11:22;;;;;;;3.03;1.20;;;9.10;99.90;;;;;;5077681;28;20045;-75
2024/02/18 00:13:48;;;;;;;2.30;1.65;;;9.10;99.90;;;;;;5082454;28;20032;-75
2024/02/18 00:16:14;;;;;;;2.83;2.08;;;9.00;99.90;;;;;;5085125;28;20035;-78
2024/02/18 00:18:40;;;;;;;1.25;1.10;;;9.00;99.90;;;;;;5085564;28;20039;-76
2024/02/18 00:21:06;;;;;;;0.65;0.65;;;8.90;99.90;;;;;;5080354;28;20039;-77
2024/02/18 00:23:32;;;;;;;1.85;1.52;;;8.90;99.90;;;;;;5065699;28;20052;-77
2024/02/18 00:25:59;;;;;;;1.40;1.30;;;8.80;99.90;;;;;;5082780;28;20411;-77
2024/02/18 00:28:25;;;;;;;3.78;2.00;;;8.70;99.90;;;;;;5087911;28;20048;-77
2024/02/18 00:30:51;;;;;;;1.60;1.50;;;8.60;1.00;;;;;;5081189;28;20028;-77
2024/02/18 00:33:21;;;;;;;1.65;1.55;;;8.60;1.00;;;;;;5080106;28;20035;-77
2024/02/18 00:35:47;;;;;;;1.48;1.38;;;8.60;1.00;;;;;;5083911;28;20442;-76
2024/02/18 00:38:13;;;;;;;1.17;1.17;;;8.50;1.00;;;;;;5083721;28;20390;-79
2024/02/18 00:40:39;;;;;;;1.00;0.98;;;8.40;1.00;;;;;;5084092;28;20052;-77
2024/02/18 00:43:05;;;;;;;2.28;2.08;;;8.40;1.00;;;;;;5079602;28;20032;-76
2024/02/18 00:45:31;;;;;;;1.27;1.17;;;8.30;5.50;;;;;;5077329;28;20033;-77
2024/02/18 00:47:57;;;;;;;1.40;1.30;;;8.30;32.00;;;;;;5086356;28;20028;-76
2024/02/18 00:50:24;;;;;;;3.50;2.17;;;8.20;56.00;;;;;;5082038;28;20043;-77
2024/02/18 00:52:50;;;;;;;5.97;2.03;;;8.20;99.90;;;;;;5078508;28;20078;-76
2024/02/18 00:55:16;;;;;;;2.03;1.83;;;8.20;99.90;;;;;;5080076;28;20035;-79
2024/02/18 00:57:42;;;;;;;1.75;0.95;;;8.20;99.90;;;;;;5084603;28;20055;-76
2024/02/18 01:00:10;;;;;;;0.88;0.88;;;8.30;99.90;;;;;;5084841;28;20484;-76
2024/02/18 01:02:36;;;;;;;0.98;0.95;;;8.20;99.90;;;;;;5087518;28;20039;-76
2024/02/18 01:05:03;;;;;;;1.23;1.13;;;8.20;99.90;;;;;;5077818;28;20031;-77
2024/02/18 01:07:30;;;;;;;1.52;1.10;;;8.10;99.90;;;;;;5082096;28;20040;-76
2024/02/18 01:09:56;;;;;;;1.60;1.52;;;8.10;99.90;;;;;;5077792;28;20477;-76
2024/02/18 01:12:22;;;;;;;1.15;1.08;;;8.10;99.90;;;;;;5086764;28;20032;-76
2024/02/18 01:14:48;;;;;;;1.42;1.23;;;7.90;99.90;;;;;;5080876;28;20382;-76
2024/02/18 01:17:14;;;;;;;1.30;1.20;;;7.80;99.90;;;;;;5087717;28;20037;-78
2024/02/18 01:19:40;;;;;;;0.80;0.65;;;7.80;99.90;;;;;;5085383;28;20032;-76
2024/02/18 01:22:07;;;;;;;2.28;1.60;;;7.60;99.90;;;;;;5082847;28;20032;-76
2024/02/18 01:24:33;;;;;;;3.35;1.77;;;7.60;99.90;;;;;;5078468;28;20031;-76
2024/02/18 01:26:59;;;;;;;4.88;2.50;;;7.50;99.90;;;;;;5086948;28;20040;-77
2024/02/18 01:29:25;;;;;;;2.20;2.03;;;7.50;99.90;;;;;;5086456;28;20032;-76
2024/02/18 01:31:51;;;;;;;2.38;1.70;;;7.50;99.90;;;;;;5084440;28;20396;-76
2024/02/18 01:34:17;;;;;;;2.13;1.63;;;7.30;99.90;;;;;;5081639;28;20028;-78
2024/02/18 01:36:43;;;;;;;1.27;1.20;;;7.20;99.90;;;;;;5070827;28;20044;-76
2024/02/18 01:39:10;;;;;;;2.30;1.20;;;7.20;99.90;;;;;;5083171;28;20035;-76
2024/02/18 01:41:36;;;;;;;1.65;1.35;;;7.10;99.90;;;;;;5072434;28;20044;-76
2024/02/18 01:44:03;;;;;;;7.80;3.15;;;7.10;99.90;;;;;;5084504;28;20028;-76
2024/02/18 01:46:30;;;;;;;1.33;1.23;;;7.10;99.90;;;;;;5077693;28;20358;-76
2024/02/18 01:48:56;;;;;;;1.55;1.45;;;7.00;99.90;;;;;;5078875;28;20036;-76
2024/02/18 01:51:23;;;;;;;0.73;0.73;;;7.00;99.90;;;;;;5083830;28;20472;-76
2024/02/18 01:53:50;;;;;;;1.48;1.38;;;6.90;99.90;;;;;;5081215;28;20486;-76
2024/02/18 01:56:19;;;;;;;2.08;1.98;;;6.90;99.90;;;;;;5079113;28;20036;-78
2024/02/18 01:58:45;;;;;;;2.83;0.90;;;6.90;99.90;;;;;;5079022;28;20051;-76
2024/02/18 02:01:12;;;;;;;2.30;2.10;;;6.80;99.90;;;;;;5079949;28;20040;-76
2024/02/18 02:03:39;;;;;;;3.78;2.08;;;6.70;99.90;;;;;;5083379;28;20039;-76
2024/02/18 02:06:07;;;;;;;2.75;0.82;;;6.70;99.90;;;;;;5092380;28;20032;-76
2024/02/18 02:08:33;;;;;;;1.15;1.00;;;6.70;99.90;;;;;;5088939;28;20039;-76
2024/02/18 02:11:00;;;;;;;4.10;1.38;;;6.70;99.90;;;;;;5093404;28;20043;-76
2024/02/18 02:13:26;;;;;;;1.13;1.05;;;6.60;99.90;;;;;;5084579;28;20051;-76
2024/02/18 02:15:53;;;;;;;0.98;0.88;;;6.60;99.90;;;;;;5087416;28;20366;-76
2024/02/18 02:18:19;;;;;;;3.10;2.00;;;6.60;99.90;;;;;;5084407;28;20232;-78
2024/02/18 02:20:45;;;;;;;0.68;0.68;;;6.50;99.90;;;;;;5083876;28;20048;-76
2024/02/18 02:23:11;;;;;;;1.08;1.00;;;6.50;99.90;;;;;;5085289;28;20037;-76
2024/02/18 02:25:38;;;;;;;2.35;2.15;;;6.50;99.90;;;;;;5085087;28;20045;-76
2024/02/18 02:28:08;;;;;;;0.65;0.65;;;6.40;99.90;;;;;;5090414;28;20082;-76
2024/02/18 02:30:34;;;;;;;1.52;1.38;;;6.40;99.90;;;;;;5081070;28;20032;-76
2024/02/18 02:33:00;;;;;;;1.45;1.02;;;6.50;99.90;;;;;;5090602;28;20047;-77
2024/02/18 02:35:27;;;;;;;2.25;2.05;;;6.40;99.90;;;;;;5086013;28;20028;-76
2024/02/18 02:37:59;;;;;;;2.03;1.83;;;6.40;99.90;;;;;;5086082;28;20035;-76
2024/02/18 02:40:26;;;;;;;13.45;2.20;;;6.40;99.90;;;;;;5078264;28;20049;-76
2024/02/18 02:42:52;;;;;;;2.95;2.75;;;6.40;99.90;;;;;;5044347;28;20033;-76
2024/02/18 02:45:18;;;;;;;1.10;1.08;;;6.40;99.90;;;;;;5056761;28;20044;-77
2024/02/18 02:47:44;;;;;;;1.02;0.95;;;6.30;99.90;;;;;;5053898;28;20044;-76
2024/02/18 02:50:11;;;;;;;1.25;1.15;;;6.30;99.90;;;;;;5062990;28;20052;-76
2024/02/18 02:52:40;;;;;;;1.08;1.05;;;6.30;99.90;;;;;;5063872;28;20052;-76
2024/02/18 02:55:07;;;;;;;0.95;0.95;;;6.20;99.90;;;;;;5063744;28;20032;-76
2024/02/18 02:57:33;;;;;;;2.80;0.77;;;6.20;99.90;;;;;;5068218;28;20043;-76
2024/02/18 02:59:59;;;;;;;2.67;2.47;;;6.10;99.90;;;;;;5054993;28;20040;-76
2024/02/18 03:02:25;;;;;;;1.05;1.02;;;6.00;99.90;;;;;;5044257;28;20036;-76
2024/02/18 03:04:51;;;;;;;1.40;1.30;;;6.00;99.90;;;;;;5046155;28;20056;-76
2024/02/18 03:07:17;;;;;;;1.77;1.08;;;5.90;99.90;;;;;;5066490;28;20029;-76
2024/02/18 03:09:44;;;;;;;0.82;0.82;;;6.00;99.90;;;;;;5064185;28;20025;-76
2024/02/18 03:12:10;;;;;;;1.73;1.63;;;5.90;99.90;;;;;;5063785;28;20056;-76
2024/02/18 03:14:36;;;;;;;1.95;1.67;;;5.80;99.90;;;;;;5059388;28;20029;-76
2024/02/18 03:17:02;;;;;;;0.85;0.85;;;5.80;99.90;;;;;;5058629;28;20037;-76
2024/02/18 03:19:28;;;;;;;0.80;0.80;;;5.80;99.90;;;;;;5034645;28;20048;-76
2024/02/18 03:21:55;;;;;;;1.67;1.58;;;5.80;99.90;;;;;;5062945;28;20029;-76
2024/02/18 03:24:21;;;;;;;4.35;1.60;;;5.80;99.90;;;;;;5036557;28;20040;-78
2024/02/18 03:26:48;;;;;;;1.73;1.63;;;5.80;99.90;;;;;;5051238;28;20044;-76
2024/02/18 03:29:14;;;;;;;1.23;1.10;;;5.80;99.90;;;;;;5066430;28;20064;-76
2024/02/18 03:31:40;;;;;;;2.13;1.92;;;5.80;99.90;;;;;;5050933;28;20033;-76
2024/02/18 03:34:06;;;;;;;2.30;2.10;;;5.70;99.90;;;;;;5029798;28;20049;-76
2024/02/18 03:36:33;;;;;;;1.60;1.48;;;5.80;99.90;;;;;;5061832;28;20025;-76
2024/02/18 03:38:59;;;;;;;2.45;1.88;;;5.80;99.90;;;;;;5066611;28;20029;-76
2024/02/18 03:41:26;;;;;;;1.23;1.08;;;5.80;99.90;;;;;;5069669;28;20437;-77
2024/02/18 03:43:52;;;;;;;1.55;1.45;;;5.70;99.90;;;;;;5083963;28;20515;-76
2024/02/18 03:46:18;;;;;;;2.80;1.35;;;5.60;99.90;;;;;;5082199;28;20032;-76
2024/02/18 03:48:45;;;;;;;1.33;1.02;;;5.60;99.90;;;;;;5091001;28;20110;-76
2024/02/18 03:51:11;;;;;;;1.20;1.10;;;5.60;99.90;;;;;;5086283;28;20024;-76
2024/02/18 03:53:37;;;;;;;1.23;1.23;;;5.60;99.90;;;;;;5081400;28;20374;-76
2024/02/18 03:56:04;;;;;;;0.75;0.75;;;5.60;99.90;;;;;;5079736;28;20040;-76
2024/02/18 03:58:30;;;;;;;4.78;1.77;;;5.50;99.90;;;;;;5079131;28;20036;-77
2024/02/18 04:00:56;;;;;;;3.58;1.85;;;5.50;99.90;;;;;;5086820;28;20024;-76
2024/02/18 04:03:22;;;;;;;1.45;1.35;;;5.50;99.90;;;;;;5083893;28;20388;-77
2024/02/18 04:05:48;;;;;;;2.00;1.60;;;5.50;99.90;;;;;;5087645;28;20042;-75
2024/02/18 04:08:15;;;;;;;2.08;1.98;;;5.40;99.90;;;;;;5090065;28;20055;-75
2024/02/18 04:10:41;;;;;;;2.33;2.13;;;5.50;99.90;;;;;;5084569;28;20040;-75
2024/02/18 04:13:07;;;;;;;2.92;1.98;;;5.50;99.90;;;;;;5086265;28;20048;-76
2024/02/18 04:15:33;;;;;;;2.13;1.92;;;5.40;99.90;;;;;;5077589;28;20029;-75
2024/02/18 04:17:59;;;;;;;3.17;2.50;;;5.40;99.90;;;;;;5079402;28;20036;-75
2024/02/18 04:20:25;;;;;;;1.05;0.98;;;5.40;99.90;;;;;;5083359;28;20035;-77
2024/02/18 04:22:52;;;;;;;3.08;2.38;;;5.40;99.90;;;;;;5083744;28;20043;-76
2024/02/18 04:25:18;;;;;;;1.60;1.50;;;5.40;99.90;;;;;;5083472;28;20028;-75
2024/02/18 04:27:44;;;;;;;3.00;1.83;;;5.40;99.90;;;;;;5080364;28;20391;-75
2024/02/18 04:30:10;;;;;;;2.22;2.03;;;5.40;99.90;;;;;;5077811;28;20032;-75
2024/02/18 04:32:37;;;;;;;3.10;2.50;;;5.40;99.90;;;;;;5084789;28;20042;-75
2024/02/18 04:35:03;;;;;;;2.53;2.05;;;5.40;99.90;;;;;;5084297;28;20032;-75
2024/02/18 04:37:29;;;;;;;2.05;1.95;;;5.40;99.90;;;;;;5082160;28;20028;-76
2024/02/18 04:39:57;;;;;;;3.25;2.75;;;5.50;99.90;;;;;;5082565;28;20043;-76
2024/02/18 04:42:23;;;;;;;2.97;2.67;;;5.50;99.90;;;;;;5065822;28;20031;-75
2024/02/18 04:44:49;;;;;;;1.75;1.65;;;5.50;99.90;;;;;;5056671;28;20045;-76
2024/02/18 04:47:16;;;;;;;1.80;1.70;;;5.50;99.90;;;;;;5057272;28;20044;-75
2024/02/18 04:49:42;;;;;;;1.92;1.77;;;5.40;99.90;;;;;;5040092;28;20036;-75
2024/02/18 04:52:08;;;;;;;2.10;1.98;;;5.30;99.90;;;;;;5050460;28;20045;-76
2024/02/18 04:54:34;;;;;;;7.15;2.05;;;5.30;99.90;;;;;;5060966;28;20374;-75
2024/02/18 04:57:01;;;;;;;0.32;0.32;;;5.30;99.90;;;;;;5065456;28;20048;-76
2024/02/18 04:59:27;;;;;;;1.33;1.23;;;5.30;99.90;;;;;;5050198;28;20044;-77
2024/02/18 05:01:54;;;;;;;7.28;2.00;;;5.20;99.90;;;;;;5050186;28;20485;-75
2024/02/18 05:04:20;;;;;;;1.67;1.55;;;5.20;99.90;;;;;;5062356;28;20037;-76
2024/02/18 05:06:49;;;;;;;2.70;1.60;;;5.20;99.90;;;;;;5064528;28;20504;-76
2024/02/18 05:09:15;;;;;;;0.93;0.93;;;5.20;99.90;;;;;;5059395;28;20025;-75
2024/02/18 05:11:41;;;;;;;1.00;1.00;;;5.20;99.90;;;;;;5037577;28;20044;-75
2024/02/18 05:14:08;;;;;;;1.77;1.67;;;5.20;99.90;;;;;;5063712;28;20037;-76
2024/02/18 05:16:34;;;;;;;1.27;1.20;;;5.20;99.90;;;;;;5050396;28;20037;-75
2024/02/18 05:19:00;;;;;;;2.42;1.23;;;5.10;99.90;;;;;;5063736;28;20035;-75
2024/02/18 05:21:26;;;;;;;2.67;2.20;;;5.20;99.90;;;;;;5058612;28;20032;-75
2024/02/18 05:23:53;;;;;;;1.70;1.60;;;5.30;99.90;;;;;;5035203;28;20033;-76
2024/02/18 05:26:19;;;;;;;4.68;0.95;;;5.30;99.90;;;;;;5063400;28;20032;-75
2024/02/18 05:28:47;;;;;;;1.73;1.63;;;5.40;99.90;;;;;;5052255;28;20044;-76
2024/02/18 05:31:24;;;;;;;1.63;1.52;;;5.40;99.90;;;;;;5051517;28;20047;-75
2024/02/18 05:33:51;;;;;;;1.77;1.67;;;5.50;99.90;;;;;;5056862;28;20038;-75
2024/02/18 05:36:18;;;;;;;1.17;1.08;;;5.50;99.90;;;;;;5062861;28;20489;-75
2024/02/18 05:38:44;;;;;;;1.73;1.63;;;5.50;99.90;;;;;;5063411;28;20044;-75
2024/02/18 05:41:11;;;;;;;1.65;0.77;;;5.50;99.90;;;;;;5062137;28;20067;-75
2024/02/18 05:43:38;;;;;;;5.13;1.88;;;5.50;99.90;;;;;;5054521;28;20044;-74
2024/02/18 05:46:06;;;;;;;0.57;0.57;;;5.50;99.90;;;;;;5056231;28;20048;-75
2024/02/18 05:48:32;;;;;;;3.63;2.85;;;5.50;99.90;;;;;;5061220;28;20025;-77
2024/02/18 05:50:58;;;;;;;2.13;1.25;;;5.60;99.90;;;;;;5062910;28;20040;-75
2024/02/18 05:53:25;;;;;;;2.67;2.50;;;5.60;99.90;;;;;;5058235;28;20893;-76
2024/02/18 05:55:51;;;;;;;1.83;1.40;;;5.70;99.90;;;;;;5054132;28;20033;-75
2024/02/18 05:58:17;;;;;;;5.63;3.10;;;5.60;99.90;;;;;;5064986;28;20036;-75
2024/02/18 06:00:43;;;;;;;3.42;1.58;;;5.60;99.90;;;;;;5064653;28;20358;-76
2024/02/18 06:03:09;;;;;;;1.52;1.35;;;5.60;99.90;;;;;;5060279;28;20028;-76
2024/02/18 06:05:36;;;;;;;3.22;2.03;;;5.60;99.90;;;;;;5061880;28;20033;-75
2024/02/18 06:08:02;;;;;;;2.33;2.13;;;5.60;99.90;;;;;;5066494;28;20028;-75
2024/02/18 06:10:29;;;;;;;2.35;2.15;;;5.60;99.90;;;;;;5052507;28;20045;-75
2024/02/18 06:12:56;;;;;;;1.77;1.67;;;5.60;99.90;;;;;;5058454;28;20029;-76
2024/02/18 06:15:22;;;;;;;2.15;1.92;;;5.50;99.90;;;;;;5057359;28;20463;-75
2024/02/18 06:17:48;;;;;;;2.47;2.25;;;5.60;99.90;;;;;;5061353;28;20063;-75
2024/02/18 06:20:16;;;;;;;1.70;1.60;;;5.60;99.90;;;;;;5061853;28;20032;-75
2024/02/18 06:22:42;;;;;;;2.38;2.25;;;5.60;99.90;;;;;;5061645;28;20021;-75
2024/02/18 06:25:08;;;;;;;2.08;1.88;;;5.60;99.90;;;;;;5059931;28;20029;-76
2024/02/18 06:27:35;;;;;;;2.42;1.77;;;5.60;99.90;;;;;;5060121;28;20025;-78
2024/02/18 06:30:06;;;;;;;1.27;1.17;;;5.60;99.90;;;;;;5061446;28;20041;-75
2024/02/18 06:32:32;;;;;;;2.07;1.90;;;5.50;99.90;;;;;;5064253;28;20025;-77
2024/02/18 06:34:58;;;;;;;1.63;1.10;;;5.50;99.90;;;;;;5061111;28;20036;-75
2024/02/18 06:37:24;;;;;;;3.90;3.55;;;5.50;99.90;;;;;;5040020;28;20033;-75
2024/02/18 06:39:50;;;;;;;2.20;2.00;;;5.60;99.90;;;;;;5042594;28;20481;-76
2024/02/18 06:42:18;;;;;;;1.70;1.52;;;5.60;99.90;;;;;;5064866;28;20037;-75
2024/02/18 06:44:44;;;;;;;2.42;2.33;;;5.60;99.90;;;;;;5060034;28;20040;-75
2024/02/18 06:47:10;;;;;;;4.38;2.13;;;5.60;99.90;;;;;;5057022;28;20049;-73
2024/02/18 06:49:37;;;;;;;3.17;2.70;;;5.60;99.90;;;;;;5062042;28;20028;-74
2024/02/18 06:52:04;;;;;;;2.25;1.60;;;5.70;99.90;;;;;;5065644;28;20040;-74
2024/02/18 06:54:30;;;;;;;0.73;0.73;;;5.70;99.90;;;;;;5064933;28;20384;-74
2024/02/18 06:56:56;;;;;;;3.38;2.58;;;5.80;99.90;;;;;;5063279;28;20029;-73
2024/02/18 06:59:22;;;;;;;3.17;2.97;;;5.80;99.90;;;;;;5061215;28;20036;-74
2024/02/18 07:01:48;;;;;;;2.55;2.33;;;5.90;99.90;;;;;;5061501;28;20040;-74
2024/02/18 07:04:15;;;;;;;1.67;1.52;;;6.00;99.90;;;;;;5065923;28;20037;-74
2024/02/18 07:06:41;;;;;;;2.50;1.92;;;6.00;99.90;;;;;;5065316;28;20044;-74
2024/02/18 07:09:07;;;;;;;4.57;1.25;;;6.10;99.90;;;;;;5061348;28;20039;-74
2024/02/18 07:11:33;;;;;;;1.65;1.55;;;6.20;99.90;;;;;;5065900;28;20107;-76
2024/02/18 07:14:00;;;;;;;2.78;1.60;;;6.30;99.90;;;;;;5066322;28;20454;-74
2024/02/18 07:16:26;;;;;;;2.78;1.95;;;6.40;99.90;;;;;;5065928;28;20028;-74
2024/02/18 07:18:52;;;;;;;4.32;2.15;;;6.50;99.90;;;;;;5063489;28;20671;-74
2024/02/18 07:21:18;;;;;;;1.40;1.30;;;6.60;99.90;;;;;;5062367;28;20028;-74
2024/02/18 07:23:45;;;;;;;3.00;2.60;;;6.70;99.90;;;;;;5067110;28;20040;-74
2024/02/18 07:26:13;;;;;;;2.25;1.95;;;6.70;99.90;;;;;;5065988;28;20037;-74
2024/02/18 07:28:40;;;;;;;2.72;2.13;;;6.70;99.90;;;;;;5066320;28;20044;-74
2024/02/18 07:31:07;;;;;;;2.28;1.58;;;6.80;99.90;;;;;;5062092;28;20032;-73
2024/02/18 07:33:33;;;;;;;1.60;1.50;;;6.80;99.90;;;;;;5059227;28;20040;-76
2024/02/18 07:35:59;;;;;;;5.65;3.28;;;6.90;99.90;;;;;;5064466;28;20033;-74
2024/02/18 07:38:29;;;;;;;3.92;1.55;;;7.00;99.90;;;;;;5063423;28;20025;-73
2024/02/18 07:40:55;;;;;;;2.90;2.30;;;7.00;99.90;;;;;;5059130;28;20056;-74
2024/02/18 07:43:21;;;;;;;2.03;1.73;;;7.10;99.90;;;;;;5067005;28;20393;-74
2024/02/18 07:45:47;;;;;;;3.28;2.05;;;7.10;68.30;;;;;;5041638;28;20493;-74
2024/02/18 07:48:13;;;;;;;1.90;1.80;;;7.20;7.80;;;;;;5065545;28;20032;-73
2024/02/18 07:50:41;;;;;;;4.00;2.28;;;7.30;1.00;;;;;;5065031;28;20043;-73
2024/02/18 07:53:07;;;;;;;1.35;1.25;;;7.30;1.00;;;;;;5061621;28;20028;-73
2024/02/18 07:55:34;;;;;;;0.75;0.75;;;7.40;1.00;;;;;;5064283;28;20037;-74
2024/02/18 07:58:01;;;;;;;3.13;2.65;;;7.40;1.00;;;;;;5065590;28;20029;-74
2024/02/18 08:00:27;;;;;;;5.43;2.05;;;7.50;99.90;;;;;;5068431;28;20029;-75
2024/02/18 08:02:53;;;;;;;1.65;1.55;;;7.50;99.90;;;;;;5058387;28;20029;-74
2024/02/18 08:05:20;;;;;;;1.65;1.48;;;7.60;99.90;;;;;;5063987;28;20443;-74
2024/02/18 08:07:46;;;;;;;2.40;1.85;;;7.60;99.90;;;;;;5065292;28;20371;-74
2024/02/18 08:10:12;;;;;;;2.70;2.30;;;7.70;99.90;;;;;;5058155;28;20050;-75
2024/02/18 08:12:38;;;;;;;0.90;0.90;;;7.80;99.90;;;;;;5062428;28;20385;-76
2024/02/18 08:15:05;;;;;;;1.58;1.35;;;7.80;99.90;;;;;;5060851;28;20040;-74
2024/02/18 08:17:31;;;;;;;2.75;2.00;;;7.90;99.90;;;;;;5065740;28;20032;-74
2024/02/18 08:19:57;;;;;;;0.40;0.40;;;8.10;99.90;;;;;;5062367;28;20657;-74
2024/02/18 08:22:24;;;;;;;2.00;1.70;;;8.00;99.90;;;;;;5052687;28;20039;-75
2024/02/18 08:24:50;;;;;;;1.42;1.33;;;8.00;99.90;;;;;;5059766;28;20036;-74
2024/02/18 08:27:16;;;;;;;1.48;1.38;;;8.00;99.90;;;;;;5066153;28;20032;-74
2024/02/18 08:29:43;;;;;;;0.57;0.57;;;8.20;99.90;;;;;;5069576;28;20039;-74
2024/02/18 08:32:09;;;;;;;1.90;1.75;;;8.30;99.90;;;;;;5068407;28;20029;-74
2024/02/18 08:34:35;;;;;;;2.25;2.05;;;8.40;67.10;;;;;;5065336;28;20037;-75
2024/02/18 08:37:03;;;;;;;3.88;1.90;;;8.60;58.30;;;;;;5058662;28;20052;-75
2024/02/18 08:39:29;;;;;;;2.63;1.70;;;8.70;34.20;;;;;;5041451;28;20040;-74
2024/02/18 08:41:55;;;;;;;1.42;1.33;;;8.80;6.90;;;;;;5063542;28;20905;-74
2024/02/18 08:44:22;;;;;;;1.00;0.85;;;8.90;1.00;;;;;;5060183;28;20036;-74
2024/02/18 08:46:50;;;;;;;1.83;1.73;;;8.90;1.00;;;;;;5058458;28;20044;-75
2024/02/18 08:49:16;;;;;;;3.08;1.38;;;8.90;1.00;;;;;;5063706;28;20040;-75
2024/02/18 08:51:42;;;;;;;0.52;0.52;;;9.00;1.00;;;;;;5063799;28;20025;-74
2024/02/18 08:54:09;;;;;;;1.38;1.27;;;9.10;1.00;;;;;;5061006;28;20040;-74
2024/02/18 08:56:35;;;;;;;1.15;1.05;;;9.10;1.00;;;;;;5060151;28;20509;-74
2024/02/18 08:59:01;;;;;;;0.93;0.90;;;9.10;1.00;;;;;;5046726;28;20044;-74
2024/02/18 09:01:27;;;;;;;2.80;2.00;;;9.10;1.00;;;;;;5052678;28;20035;-74
2024/02/18 09:03:53;;;;;;;0.68;0.68;;;9.10;1.00;;;;;;5063614;28;20029;-73
2024/02/18 09:06:20;;;;;;;0.75;0.52;;;9.20;1.00;;;;;;5060623;28;20028;-75
2024/02/18 09:08:47;;;;;;;1.58;1.48;;;9.30;1.00;;;;;;5062500;28;20055;-75
2024/02/18 09:11:14;;;;;;;4.53;1.50;;;9.30;1.00;;;;;;5064597;28;20037;-75
2024/02/18 09:13:41;;;;;;;1.20;1.10;;;9.30;1.00;;;;;;5063263;28;20032;-77
2024/02/18 09:16:07;;;;;;;1.27;1.05;;;9.30;1.00;;;;;;5062473;28;20135;-75
2024/02/18 09:18:33;;;;;;;2.65;0.57;;;9.30;1.00;;;;;;5053627;28;20029;-76
2024/02/18 09:21:02;;;;;;;1.38;1.27;;;9.40;1.00;;;;;;5046805;28;20051;-76
2024/02/18 09:23:28;;;;;;;2.17;1.15;;;9.50;1.00;;;;;;5059780;28;20039;-74
2024/02/18 09:25:55;;;;;;;0.85;0.85;;;9.50;1.00;;;;;;5059924;28;20028;-75
2024/02/18 09:28:21;;;;;;;1.60;1.33;;;9.60;1.00;;;;;;5063488;28;20024;-74
2024/02/18 09:30:47;;;;;;;1.48;1.38;;;9.60;1.00;;;;;;5063176;28;20024;-74
2024/02/18 09:33:14;;;;;;;1.35;0.90;;;9.60;99.90;;;;;;5061551;28;20039;-75
2024/02/18 09:35:40;;;;;;;0.85;0.85;;;9.60;99.90;;;;;;5065013;28;20043;-78
2024/02/18 09:38:09;;;;;;;1.38;0.80;;;9.70;99.90;;;;;;5059688;28;20032;-75
2024/02/18 09:40:36;;;;;;;0.85;0.77;;;9.80;99.90;;;;;;5058841;28;20052;-75
2024/02/18 09:43:02;;;;;;;1.17;0.80;;;9.90;99.90;;;;;;5060198;28;20602;-75
2024/02/18 09:45:32;;;;;;;2.30;1.25;;;10.00;99.90;;;;;;5065306;28;20040;-75
2024/02/18 09:48:01;;;;;;;1.88;1.30;;;10.10;99.90;;;;;;5041457;28;20052;-75
2024/02/18 09:50:31;;;;;;;1.98;1.58;;;10.20;99.90;;;;;;5065597;28;20035;-75
2024/02/18 09:52:58;;;;;;;4.72;0.73;;;10.20;99.90;;;;;;5048679;28;20036;-75
2024/02/18 09:55:24;;;;;;;0.88;0.88;;;10.20;99.90;;;;;;5063715;28;20040;-75
2024/02/18 09:57:50;;;;;;;1.48;0.95;;;10.20;99.90;;;;;;5061734;28;20043;-74
2024/02/18 10:00:18;;;;;;;1.75;1.27;;;10.20;99.90;;;;;;5062149;28;20458;-75
2024/02/18 10:02:45;;;;;;;0.95;0.85;;;10.10;99.90;;;;;;5058009;28;20478;-75
2024/02/18 10:05:11;;;;;;;4.15;1.27;;;10.20;99.90;;;;;;5061878;28;20043;-75
2024/02/18 10:07:38;;;;;;;1.45;0.90;;;10.30;99.90;;;;;;5065481;28;20032;-76
2024/02/18 10:10:04;;;;;;;4.22;1.80;;;10.40;99.90;;;;;;5058597;28;20066;-76
2024/02/18 10:12:32;;;;;;;2.47;2.25;;;10.60;99.90;;;;;;5056649;28;20756;-76
2024/02/18 10:15:03;;;;;;;0.80;0.80;;;10.60;99.90;;;;;;5051485;28;20032;-76
2024/02/18 10:17:29;;;;;;;;;;;10.60;99.90;;;;;;5063227;28;20035;-76
2024/02/18 10:19:56;;;;;;;1.75;1.20;;;10.70;99.90;;;;;;5060009;28;19908;-76
2024/02/18 10:22:24;;;;;;;2.75;1.63;;;10.70;99.90;;;;;;5058144;28;20374;-76
2024/02/18 10:24:51;;;;;;;0.73;0.73;;;10.80;99.90;;;;;;5065459;28;20047;-77
2024/02/18 10:27:18;;;;;;;1.70;1.23;;;10.80;99.90;;;;;;5065183;28;20032;-75
2024/02/18 10:29:48;;;;;;;4.15;0.88;;;10.90;99.90;;;;;;5065155;28;20040;-76
2024/02/18 10:32:16;;;;;;;2.15;1.67;;;11.00;76.20;;;;;;5048249;28;20032;-76
2024/02/18 10:34:46;;;;;;;0.77;0.77;;;11.00;42.00;;;;;;5055942;28;20039;-77
2024/02/18 10:37:35;;;;;;;0.65;0.57;;;11.00;32.70;;;;;;5057522;28;20393;-76
2024/02/18 10:40:08;;;;;;;1.70;0.85;;;11.00;29.30;;;;;;5045764;28;20052;-75
2024/02/18 10:42:37;;;;;;;3.25;2.03;;;11.20;14.60;;;;;;5055412;28;20055;-75
2024/02/18 10:45:05;;;;;;;1.98;1.15;;;11.20;1.00;;;;;;5065776;28;20039;-76
2024/02/18 10:47:32;;;;;;;1.70;0.90;;;11.20;1.00;;;;;;5064982;28;20496;-75
2024/02/18 10:50:03;;;;;;;0.75;0.55;;;11.30;1.00;;;;;;5051115;28;20037;-75
2024/02/18 10:52:44;;;;;;;0.88;0.70;;;11.40;1.00;;;;;;5063866;28;20029;-74
2024/02/18 10:55:11;;;;;;;0.88;0.88;;;11.40;1.00;;;;;;5063028;28;20044;-74
2024/02/18 10:58:04;;;;;;;0.88;0.85;;;11.40;1.00;;;;;;5065563;28;20061;-74
2024/02/18 11:00:35;;;;;;;0.60;0.60;;;11.40;1.00;;;;;;5063969;28;20037;-75
2024/02/18 11:03:07;;;;;;;0.68;0.68;;;11.50;1.00;;;;;;5062236;28;20041;-75
2024/02/18 11:05:35;;;;;;;2.50;0.68;;;11.50;1.00;;;;;;5062322;28;20033;-75
2024/02/18 11:08:03;;;;;;;0.40;0.40;;;11.60;99.90;;;;;;5062735;28;20044;-75
2024/02/18 11:10:29;;;;;;;0.77;0.75;;;11.60;99.90;;;;;;5068703;28;20039;-75
2024/02/18 11:12:58;;;;;;;1.27;1.20;;;11.50;99.90;;;;;;5062725;28;20029;-75
2024/02/18 11:15:24;;;;;;;0.47;0.47;;;11.50;99.90;;;;;;5061196;28;20033;-74
2024/02/18 11:17:52;;;;;;;0.60;0.60;;;11.50;99.90;;;;;;5062027;28;20098;-76
2024/02/18 11:20:20;;;;;;;0.68;0.60;;;11.50;99.90;;;;;;5062836;28;20033;-74
2024/02/18 11:22:47;;;;;;;0.63;0.43;;;11.50;99.90;;;;;;5064562;28;20046;-77
2024/02/18 11:25:13;;;;;;;1.15;0.90;;;11.50;99.90;;;;;;5067255;28;20496;-75
2024/02/18 11:27:39;;;;;;;1.20;0.50;;;11.60;99.90;;;;;;5060522;28;20036;-74
2024/02/18 11:30:07;;;;;;;0.88;0.73;;;11.50;99.90;;;;;;5060812;28;20029;-74
2024/02/18 11:32:33;;;;;;;5.47;1.20;;;11.40;99.90;;;;;;5059120;28;20033;-77
2024/02/18 11:35:14;;;;;;;0.63;0.60;;;11.50;99.90;;;;;;5051459;28;20036;-75
2024/02/18 11:37:41;;;;;;;0.55;0.30;;;11.60;99.90;;;;;;5053821;28;20029;-74
2024/02/18 11:40:18;;;;;;;0.40;0.40;;;11.60;99.90;;;;;;5053656;28;20052;-75
2024/02/18 11:42:46;;;;;;;0.77;0.77;;;11.70;99.90;;;;;;5067405;28;20385;-77
2024/02/18 11:45:19;;;;;;;1.20;1.00;;;11.70;99.90;;;;;;5064045;28;20032;-75
2024/02/18 11:47:54;;;;;;;0.70;0.70;;;11.70;99.90;;;;;;5042250;28;20382;-78
2024/02/18 11:50:20;;;;;;;1.02;0.93;;;11.80;99.90;;;;;;5060105;28;20056;-75
2024/02/18 11:52:48;;;;;;;0.20;0.20;;;11.70;99.90;;;;;;5064482;28;20124;-76
2024/02/18 11:55:18;;;;;;;1.05;0.28;;;11.90;99.90;;;;;;5068341;28;20033;-75
2024/02/18 11:57:46;;;;;;;4.35;1.30;;;11.90;99.90;;;;;;5062427;28;20382;-76
2024/02/18 12:00:13;;;;;;;1.65;0.95;;;12.00;99.90;;;;;;5060133;28;20478;-75
2024/02/18 12:02:44;;;;;;;0.30;0.30;;;12.00;99.90;;;;;;5045090;28;20032;-75
2024/02/18 12:05:10;;;;;;;;;;;12.00;99.90;;;;;;5065583;28;20397;-75
2024/02/18 12:07:40;;;;;;;2.03;0.38;;;12.00;99.90;;;;;;5058758;28;19912;-75
2024/02/18 12:10:06;;;;;;;0.43;0.43;;;12.10;99.90;;;;;;5049403;28;20607;-77
2024/02/18 12:12:33;;;;;;;0.35;0.35;;;12.10;99.90;;;;;;5045467;28;20029;-74
2024/02/18 12:15:00;;;;;;;0.50;0.50;;;12.00;99.90;;;;;;5047746;28;20032;-75
2024/02/18 12:17:26;;;;;;;0.85;0.73;;;12.00;99.90;;;;;;5056578;28;20037;-76
2024/02/18 12:19:53;;;;;;;0.60;0.40;;;12.00;99.90;;;;;;5062995;28;20036;-75
2024/02/18 12:22:24;;;;;;;2.45;1.23;;;12.10;99.90;;;;;;5050739;28;20028;-75
2024/02/18 12:24:50;;;;;;;;;;;12.10;96.20;;;;;;5062341;28;20043;-75
2024/02/18 12:27:20;;;;;;;0.43;0.43;;;12.10;99.90;;;;;;5036694;28;19912;-75
2024/02/18 12:29:48;;;;;;;1.00;0.63;;;12.20;99.90;;;;;;5059601;28;20037;-77
2024/02/18 12:32:17;;;;;;;0.32;0.32;;;12.30;93.70;;;;;;5055992;28;20044;-75
2024/02/18 12:34:46;;;;;;;0.77;0.77;;;12.30;99.90;;;;;;5063405;28;20481;-75
2024/02/18 12:37:12;;;;;;;0.75;0.68;;;12.30;90.90;;;;;;5064463;28;20454;-75
2024/02/18 12:39:39;;;;;;;0.65;0.57;;;12.40;99.90;;;;;;5062236;28;20040;-75
2024/02/18 12:42:06;;;;;;;1.35;1.05;;;12.30;95.40;;;;;;5053407;28;20736;-75
2024/02/18 12:44:34;;;;;;;0.43;0.43;;;12.30;81.30;;;;;;5062140;28;20497;-74
2024/02/18 12:47:01;;;;;;;0.80;0.73;;;12.40;98.90;;;;;;5061570;28;20037;-74
2024/02/18 12:49:31;;;;;;;1.00;0.52;;;12.40;93.10;;;;;;5047872;28;20028;-74
2024/02/18 12:52:04;;;;;;;0.40;0.40;;;12.50;66.50;;;;;;5041710;28;20033;-75
2024/02/18 12:54:30;;;;;;;0.55;0.52;;;12.30;81.80;;;;;;5065547;28;20042;-74
2024/02/18 12:56:57;;;;;;;0.60;0.60;;;12.30;94.10;;;;;;5064875;28;20040;-75